| time (UTC) | temp C | wind direction | speed KPH | gust KPH | rain 1hr cm | rain 24hr cm | rain mn cm | humidity % | barometer mb |
| 20260503004507 | 26 | 146 | 0.0 | 0.0 | 0.00 | 0.00 | 0.00 | 21 | 1017.4 |
| 20260503003003 | 26 | 146 | 0.0 | 0.0 | 0.00 | 0.00 | 0.00 | 21 | 1017.5 |
| 20260503001502 | 26 | 146 | 0.0 | 0.0 | 0.00 | 0.00 | 0.00 | 20 | 1017.5 |
| 20260503000110 | 27 | 146 | 0.0 | 0.0 | 0.00 | 0.00 | 0.00 | 21 | 1017.7 |
| 20260502234556 | 27 | 146 | 0.0 | 0.0 | 0.00 | 0.00 | 0.00 | 21 | 1017.8 |
| 20260502233052 | 28 | 146 | 0.0 | 0.0 | 0.00 | 0.00 | 0.00 | 20 | 1018.1 |
| 20260502231548 | 30 | 146 | 0.0 | 0.0 | 0.00 | 0.00 | 0.00 | 19 | 1018.4 |
| 20260502230044 | 32 | 146 | 0.0 | 0.0 | 0.00 | 0.00 | 0.00 | 17 | 1018.4 |
| 20260502224544 | 32 | 146 | 0.0 | 0.0 | 0.00 | 0.00 | 0.00 | 18 | 1018.4 |
| 20260502223041 | 32 | 146 | 0.0 | 0.0 | 0.00 | 0.00 | 0.00 | 17 | 1018.8 |
| 20260502221539 | 32 | 146 | 0.0 | 0.0 | 0.00 | 0.00 | 0.00 | 17 | 1019.1 |
| 20260502220037 | 32 | 146 | 0.0 | 0.0 | 0.00 | 0.00 | 0.00 | 16 | 1019.3 |
| 20260502214536 | 32 | 146 | 0.0 | 0.0 | 0.00 | 0.00 | 0.00 | 17 | 1019.5 |
| 20260502213036 | 33 | 146 | 0.0 | 0.0 | 0.00 | 0.00 | 0.00 | 17 | 1019.7 |
| 20260502211538 | 33 | 146 | 0.0 | 0.0 | 0.00 | 0.00 | 0.00 | 17 | 1019.7 |
| 20260502210031 | 33 | 146 | 0.0 | 0.0 | 0.00 | 0.00 | 0.00 | 17 | 1020.0 |
| 20260502204529 | 32 | 146 | 0.0 | 0.0 | 0.00 | 0.00 | 0.00 | 19 | 1020.2 |
| 20260502203023 | 31 | 146 | 0.0 | 0.0 | 0.00 | 0.00 | 0.00 | 20 | 1020.5 |
| 20260502201520 | 30 | 146 | 0.0 | 0.0 | 0.00 | 0.00 | 0.00 | 20 | 1020.7 |
| 20260502200019 | 30 | 146 | 0.0 | 0.0 | 0.00 | 0.00 | 0.00 | 22 | 1021.0 |
| 20260502194518 | 29 | 146 | 0.0 | 0.0 | 0.00 | 0.00 | 0.00 | 23 | 1021.2 |
| 20260502193019 | 29 | 146 | 0.0 | 0.0 | 0.00 | 0.00 | 0.00 | 19 | 1021.4 |
| 20260502191521 | 28 | 146 | 0.0 | 0.0 | 0.00 | 0.00 | 0.00 | 23 | 1021.8 |
| 20260502190017 | 27 | 146 | 0.0 | 0.0 | 0.00 | 0.00 | 0.00 | 25 | 1022.0 |
| 20260502184527 | 26 | 146 | 0.0 | 0.0 | 0.00 | 0.00 | 0.00 | 23 | 1022.2 |
| 20260502183020 | 26 | 146 | 0.0 | 0.0 | 0.00 | 0.00 | 0.00 | 27 | 1022.5 |
| 20260502181517 | 25 | 146 | 0.0 | 0.0 | 0.00 | 0.00 | 0.00 | 27 | 1022.9 |
| 20260502163021 | 15 | 146 | 0.0 | 0.0 | 0.00 | 0.00 | 0.00 | 41 | 1024.6 |
| 20260502161514 | 14 | 146 | 0.0 | 0.0 | 0.00 | 0.00 | 0.00 | 42 | 1024.7 |
| 20260502151513 | 8 | 146 | 0.0 | 0.0 | 0.00 | 0.00 | 0.00 | 58 | 1025.4 |
| 20260502123005 | -1 | 146 | 0.0 | 0.0 | 0.00 | 0.00 | 0.00 | 75 | 1025.1 |
| 20260502121505 | -1 | 146 | 0.0 | 0.0 | 0.00 | 0.00 | 0.00 | 76 | 1025.0 |
| 20260502113055 | 0 | 146 | 0.0 | 0.0 | 0.00 | 0.00 | 0.00 | 73 | 1024.8 |
| 20260502111555 | 0 | 146 | 0.0 | 0.0 | 0.00 | 0.00 | 0.00 | 75 | 1024.8 |
| 20260502110051 | 0 | 146 | 0.0 | 0.0 | 0.00 | 0.00 | 0.00 | 73 | 1024.7 |
| 20260502103050 | 0 | 146 | 0.0 | 0.0 | 0.00 | 0.00 | 0.00 | 74 | 1024.7 |
| 20260502101549 | 0 | 146 | 0.0 | 0.0 | 0.00 | 0.00 | 0.00 | 74 | 1024.8 |
| 20260502071524 | 5 | 146 | 0.0 | 0.0 | 0.00 | 0.00 | 0.00 | 60 | 1024.2 |
| 20260502070023 | 5 | 146 | 0.0 | 0.0 | 0.00 | 0.00 | 0.00 | 61 | 1024.1 |
| 20260502063018 | 5 | 146 | 0.0 | 0.0 | 0.00 | 0.00 | 0.00 | 59 | 1023.7 |
| 20260502061516 | 5 | 146 | 0.0 | 0.0 | 0.00 | 0.00 | 0.00 | 60 | 1023.5 |
| 20260502060014 | 5 | 146 | 0.0 | 0.0 | 0.00 | 0.00 | 0.00 | 61 | 1023.4 |
| 20260502053015 | 5 | 146 | 0.0 | 0.0 | 0.00 | 0.00 | 0.00 | 60 | 1023.2 |
| 20260502051511 | 5 | 146 | 0.0 | 0.0 | 0.00 | 0.00 | 0.00 | 61 | 1023.0 |
| 20260502050010 | 6 | 146 | 0.0 | 0.0 | 0.00 | 0.00 | 0.00 | 53 | 1022.9 |
| 20260502043102 | 8 | 146 | 0.0 | 0.0 | 0.00 | 0.00 | 0.00 | 45 | 1022.8 |
| 20260502041558 | 10 | 146 | 0.0 | 0.0 | 0.00 | 0.00 | 0.00 | 39 | 1022.7 |
| 20260502040055 | 11 | 146 | 0.0 | 0.0 | 0.00 | 0.00 | 0.00 | 39 | 1022.6 |
| 20260502033044 | 13 | 146 | 0.0 | 0.0 | 0.00 | 0.00 | 0.00 | 35 | 1022.1 |
| 20260502031540 | 15 | 146 | 0.0 | 0.0 | 0.00 | 0.00 | 0.00 | 33 | 1021.9 |
| 20260502030042 | 15 | 146 | 0.0 | 0.0 | 0.00 | 0.00 | 0.00 | 31 | 1021.6 |
| 20260502023037 | 16 | 146 | 0.0 | 0.0 | 0.00 | 0.00 | 0.00 | 31 | 1021.4 |
| 20260502021534 | 16 | 146 | 0.0 | 0.0 | 0.00 | 0.00 | 0.00 | 31 | 1021.2 |
| 20260502020028 | 18 | 146 | 0.0 | 0.0 | 0.00 | 0.00 | 0.00 | 30 | 1021.1 |
| 20260502013018 | 21 | 146 | 0.0 | 0.0 | 0.00 | 0.00 | 0.00 | 27 | 1021.1 |
| 20260502011514 | 22 | 146 | 0.0 | 0.0 | 0.00 | 0.00 | 0.00 | 24 | 1021.2 |
| 20260502010010 | 23 | 146 | 0.0 | 0.0 | 0.00 | 0.00 | 0.00 | 23 | 1021.2 |